This is the latest recevied weather packets stored in our database for station/object K5NWZ. If no packets are shown the sender has not sent any weather packets the latest 10 day(s).
| Time | Temp. | Humidity | Pressure | Rain* | Wind** | Luminosity | Snow |
|---|---|---|---|---|---|---|---|
| 1788134216 | 23.33° C | 49% | 1027.5 hPa | 0 mm | - | 40 W/m² | - |
| 1788133912 | 23.33° C | 47% | 1027.5 hPa | 0 mm | - | 47 W/m² | - |
| 1788133606 | 23.89° C | 46% | 1027.6 hPa | 0 mm | - | 68 W/m² | - |
| 1788133302 | 23.89° C | 46% | 1027.6 hPa | 0 mm | - | 79 W/m² | - |
| 1788132998 | 23.89° C | 44% | 1027.5 hPa | 0 mm | - | 89 W/m² | - |
| 1788132693 | 23.89° C | 43% | 1027.4 hPa | 0 mm | - | 73 W/m² | - |
| 1788132389 | 23.89° C | 45% | 1027.3 hPa | 0 mm | - | 81 W/m² | - |
| 1788132085 | 23.89° C | 45% | 1027.4 hPa | 0 mm | - | 87 W/m² | - |
| 1788131781 | 23.89° C | 44% | 1027.4 hPa | 0 mm | - | 108 W/m² | - |
| 1788131479 | 23.89° C | 42% | 1027.3 hPa | 0 mm | - | 106 W/m² | - |
| 1788131176 | 23.89° C | 42% | 1027.4 hPa | 0 mm | - | 93 W/m² | - |
| 1788130875 | 23.89° C | 42% | 1027.5 hPa | 0 mm | - | 93 W/m² | - |
| 1788130570 | 23.89° C | 43% | 1027.4 hPa | 0 mm | - | 98 W/m² | - |
| 1788130265 | 24.44° C | 41% | 1027.4 hPa | 0 mm | - | 90 W/m² | - |
| 1788129963 | 24.44° C | 39% | 1027.3 hPa | 0 mm | - | 244 W/m² | - |
| 1788129660 | 24.44° C | 39% | 1027.4 hPa | 0 mm | - | 167 W/m² | - |
| 1788129357 | 24.44° C | 39% | 1027.3 hPa | 0 mm | - | 154 W/m² | - |
| 1788129057 | 23.89° C | 41% | 1027.3 hPa | 0 mm | - | 223 W/m² | - |
| 1788128751 | 23.33° C | 42% | 1027 hPa | 0 mm | - | 123 W/m² | - |
| 1788128448 | 23.33° C | 40% | 1027.3 hPa | 0 mm | - | 57 W/m² | - |
| 1788128144 | 23.33° C | 41% | 1027 hPa | 0 mm | - | 49 W/m² | - |
| 1788127839 | 23.33° C | 44% | 1027 hPa | 0 mm | - | 56 W/m² | - |
| 1788127539 | 23.33° C | 41% | 1027.2 hPa | 0 mm | - | 71 W/m² | - |
| 1788127238 | 24.44° C | 41% | 1027.6 hPa | 0 mm | - | 87 W/m² | - |
| 1788126932 | 24.44° C | 39% | 1027.3 hPa | 0 mm | - | 120 W/m² | - |
* Rain latest hour (hover to see other rain measurements)
** Current wind speed in m/s (hover to see current wind gust speed)